Aeroporto :
LOGIN :

Iscrizione | Disclaimer

   EN    FR    IT 

 










Sommario :    VFR   VFR Marginale   IFR   IFR Intensivo   IFR Molto Intensivo
Visibilità : 
Base nubi : 
>= 8 km
>= 3000ft
5 / 8 km
1000 / 3000 ft
1500m / 5 km
500 / 1000 ft
800 / 1500m
200 / 500 ft
< 800m
< 200 ft
Simboli :   Temporali  Nebbia  Neve Forte  Precipitazioni Forti  Vento > 20 kt
SIGMETs :   Varie  Temporali  Ghiacco  Turbolenza  Onda orograficha  Ceneri Vulcaniche






- Altitudine del aeroporto : 7 ft
- Codice IATA : VCE


LIPZ - Marco Polo Int. Venezia

ULTIMO METAR :
  • 171150Z 13009KT 9999 -RA SCT015TCU SCT030 15/14 Q1002 NOSIG

METARs OBSOLETI :
  • 171120Z 06007KT 9999 SCT020TCU BKN060 14/13 Q1003 NOSIG
  • 171050Z 08007KT 9999 SCT020 BKN070 14/12 Q1003 NOSIG
  • 171020Z 07009KT 9999 SCT030 BKN070 13/12 Q1003 NOSIG
  • 170950Z 06009KT 9999 FEW030 SCT070 12/11 Q1004 NOSIG
  • 170920Z 03010KT 9999 SCT030 BKN070 12/11 Q1003 NOSIG

TAF TAF LIPZ
Valido dal 17 a 12 ore il 18 a 18 ore UTC


171100Z 1712/1818 15013KT 8000 SCT020 BKN050
TEMPO 1712/1715 4000 SHRA
BECMG 1714/1716 21012KT



MetMap, La meteo Aeronautica in un colpo d'occhio ! - Copyright ORBIFLY Dicembre 2007 - Disclaimer

ORBIFLY MET'MAP TEAM :

Programmazione e sviluppo : Alexandra Zaïnal
Concezione e sviluppo : Baudouin d'Aumeries
Co-Programmazione e sviluppo : Marc-Olivier Méhu
Supporto tecnico e logistico : Manuel Goepfert
Aiuto per la traduzione : Arnaldo La Scala

Contatto : metmap@orbifly.com




FONTI E CREDITI :

   NOAA